Time;durP1;ratioP1;P1;durP2;ratioP2;P2;SDS_P1;SDS_P2;PMS_P1;PMS_P2;Temp;Humidity;BMP_temperature;BMP_pressure;BME280_temperature;BME280_humidity;BME280_pressure;Samples;Min_cycle;Max_cycle;Signal;HPM_P1;HPM_P2
2021/01/25 00:02:05;;;;;;;1.33;0.90;;;18.80;40.20;;;;;;5081093;28;20097;-48
2021/01/25 00:04:30;;;;;;;2.38;1.20;;;18.80;40.30;;;;;;5081426;28;20061;-46
2021/01/25 00:06:56;;;;;;;2.28;1.30;;;18.80;40.30;;;;;;5098415;28;20035;-49
2021/01/25 00:09:21;;;;;;;2.15;1.02;;;18.80;40.30;;;;;;5096719;28;20059;-48
2021/01/25 00:11:47;;;;;;;1.75;1.58;;;18.80;40.30;;;;;;5099238;28;20038;-47
2021/01/25 00:14:12;;;;;;;3.05;1.38;;;18.80;40.30;;;;;;5098538;28;20038;-47
2021/01/25 00:16:38;;;;;;;4.65;1.48;;;18.80;40.30;;;;;;5084352;28;20024;-47
2021/01/25 00:19:04;;;;;;;2.03;1.40;;;18.80;40.30;;;;;;5099096;28;20036;-45
2021/01/25 00:21:29;;;;;;;2.22;1.30;;;18.80;40.40;;;;;;5098112;28;20036;-43
2021/01/25 00:23:55;;;;;;;1.70;1.42;;;18.70;40.30;;;;;;5096288;28;20016;-47
2021/01/25 00:26:20;;;;;;;2.05;0.82;;;18.70;40.30;;;;;;5098035;28;20036;-44
2021/01/25 00:28:46;;;;;;;2.90;1.17;;;18.70;40.30;;;;;;5098446;28;20040;-45
2021/01/25 00:31:11;;;;;;;1.88;0.98;;;18.70;40.30;;;;;;5096308;28;20035;-48
2021/01/25 00:33:37;;;;;;;1.95;1.25;;;18.70;40.30;;;;;;5097957;28;20031;-44
2021/01/25 00:36:03;;;;;;;1.13;0.93;;;18.70;40.30;;;;;;5099460;28;20057;-46
2021/01/25 00:38:28;;;;;;;2.00;1.10;;;18.70;40.30;;;;;;5096101;28;20039;-45
2021/01/25 00:40:54;;;;;;;2.65;1.40;;;18.70;40.30;;;;;;5097657;28;20503;-47
2021/01/25 00:43:19;;;;;;;1.27;0.75;;;18.70;40.30;;;;;;5084778;28;20040;-47
2021/01/25 00:45:45;;;;;;;1.55;1.05;;;18.70;40.30;;;;;;5095255;28;20035;-46
2021/01/25 00:48:11;;;;;;;1.40;0.80;;;18.60;40.30;;;;;;5098274;28;20035;-46
2021/01/25 00:50:36;;;;;;;1.73;0.77;;;18.60;40.30;;;;;;5085428;28;20021;-49
2021/01/25 00:53:02;;;;;;;2.13;1.30;;;18.60;40.30;;;;;;5067920;28;20034;-43
2021/01/25 00:55:27;;;;;;;2.75;0.95;;;18.60;40.40;;;;;;5098296;28;20039;-47
2021/01/25 00:57:53;;;;;;;1.25;0.73;;;18.60;40.50;;;;;;5084830;28;20432;-47
2021/01/25 01:00:19;;;;;;;1.33;0.80;;;18.60;40.50;;;;;;5107676;28;20121;-47
2021/01/25 01:02:45;;;;;;;1.50;1.10;;;18.60;40.40;;;;;;5093660;28;20024;-47
2021/01/25 01:05:11;;;;;;;2.42;1.33;;;18.50;40.40;;;;;;5104351;28;20028;-47
2021/01/25 01:10:18;;;;;;;1.80;1.10;;;18.50;40.40;;;;;;5074128;28;20500;-51
2021/01/25 01:12:44;;;;;;;1.75;0.88;;;18.50;40.40;;;;;;5078366;28;20143;-51
2021/01/25 01:15:12;;;;;;;2.53;1.33;;;18.50;40.40;;;;;;5079024;28;20690;-53
2021/01/25 01:17:39;;;;;;;1.63;0.82;;;18.50;40.50;;;;;;5079148;28;20111;-52
2021/01/25 01:20:05;;;;;;;2.03;1.05;;;18.50;40.40;;;;;;5080304;28;20463;-52
2021/01/25 01:22:31;;;;;;;2.45;1.23;;;18.50;40.40;;;;;;5079811;28;20531;-53
2021/01/25 01:24:57;;;;;;;1.50;0.82;;;18.50;40.40;;;;;;5079413;28;20020;-52
2021/01/25 01:27:22;;;;;;;1.27;0.80;;;18.50;40.50;;;;;;5079741;28;20067;-51
2021/01/25 01:29:48;;;;;;;1.45;0.90;;;18.50;40.40;;;;;;5078216;28;20020;-49
2021/01/25 01:32:13;;;;;;;1.05;0.60;;;18.50;40.40;;;;;;5079056;28;20412;-52
2021/01/25 01:34:39;;;;;;;1.30;1.13;;;18.50;40.50;;;;;;5078294;28;20028;-54
2021/01/25 01:37:04;;;;;;;1.55;0.90;;;18.40;40.40;;;;;;5080176;28;20032;-52
2021/01/25 01:39:30;;;;;;;1.60;0.68;;;18.40;40.40;;;;;;5080022;28;20039;-46
2021/01/25 01:41:55;;;;;;;1.23;0.73;;;18.40;40.40;;;;;;5080196;28;20025;-52
2021/01/25 01:44:21;;;;;;;1.58;0.80;;;18.40;40.40;;;;;;5079843;28;20028;-47
2021/01/25 01:46:46;;;;;;;2.08;0.88;;;18.40;40.40;;;;;;5083207;28;20024;-52
2021/01/25 01:49:14;;;;;;;1.05;0.80;;;18.40;40.40;;;;;;5080425;28;20036;-53
2021/01/25 01:51:40;;;;;;;1.83;0.70;;;18.40;40.30;;;;;;5078652;28;20027;-52
2021/01/25 01:54:07;;;;;;;2.35;0.80;;;18.40;40.30;;;;;;5078888;28;20033;-53
2021/01/25 01:56:34;;;;;;;2.00;1.10;;;18.40;40.40;;;;;;5079562;28;20097;-49
2021/01/25 01:59:00;;;;;;;1.42;0.75;;;18.40;40.40;;;;;;5079562;28;20029;-46
2021/01/25 02:01:26;;;;;;;1.45;0.73;;;18.40;40.40;;;;;;5077048;28;20486;-51
2021/01/25 02:03:52;;;;;;;1.77;0.85;;;18.30;40.40;;;;;;5079989;28;20038;-50
2021/01/25 02:06:19;;;;;;;1.38;0.65;;;18.40;40.40;;;;;;5077396;28;20474;-52
2021/01/25 02:08:47;;;;;;;2.85;0.60;;;18.40;40.40;;;;;;5079703;28;20119;-49
2021/01/25 02:11:13;;;;;;;1.45;0.43;;;18.30;40.40;;;;;;5077599;28;20033;-51
2021/01/25 02:13:40;;;;;;;0.90;0.50;;;18.30;40.40;;;;;;5079087;28;20665;-45
2021/01/25 02:16:06;;;;;;;1.17;0.52;;;18.30;40.90;;;;;;5078497;28;20036;-52
2021/01/25 02:18:35;;;;;;;1.95;0.60;;;18.30;40.40;;;;;;5078341;28;20048;-57
2021/01/25 02:21:04;;;;;;;1.95;0.65;;;18.30;40.40;;;;;;5077176;28;20031;-52
2021/01/25 02:24:01;;;;;;;0.90;0.50;;;18.30;40.40;;;;;;5077684;28;20025;-47
2021/01/25 02:26:41;;;;;;;1.60;0.60;;;18.30;40.40;;;;;;5078137;28;20028;-54
2021/01/25 02:29:07;;;;;;;1.63;0.70;;;18.30;40.40;;;;;;5078888;28;20413;-54
2021/01/25 02:31:32;;;;;;;1.65;0.47;;;18.30;40.40;;;;;;5077752;28;20036;-49
2021/01/25 02:33:59;;;;;;;1.20;0.60;;;18.30;40.30;;;;;;5078120;28;20666;-51
2021/01/25 02:36:27;;;;;;;1.40;0.60;;;18.30;40.40;;;;;;5076759;28;20043;-53
2021/01/25 02:38:54;;;;;;;1.35;0.50;;;18.30;40.40;;;;;;5077547;28;20029;-50
2021/01/25 02:41:25;;;;;;;1.20;0.50;;;18.30;40.30;;;;;;5078774;28;20050;-51
2021/01/25 02:43:52;;;;;;;0.90;0.50;;;18.30;40.30;;;;;;5079081;28;20028;-51
2021/01/25 02:46:18;;;;;;;1.33;0.50;;;18.30;40.80;;;;;;5078374;28;20676;-51
2021/01/25 02:48:44;;;;;;;1.67;0.63;;;18.30;40.10;;;;;;5079658;28;20028;-53
2021/01/25 02:51:11;;;;;;;1.38;0.60;;;18.20;40.20;;;;;;5079043;28;20044;-51
2021/01/25 02:53:37;;;;;;;1.60;0.68;;;18.20;40.20;;;;;;5076525;28;20032;-53
2021/01/25 02:56:02;;;;;;;1.05;0.68;;;18.30;40.20;;;;;;5078319;28;20032;-52
2021/01/25 02:58:28;;;;;;;1.55;0.80;;;18.30;40.20;;;;;;5078816;28;20093;-54
2021/01/25 03:00:54;;;;;;;1.70;0.40;;;18.30;40.30;;;;;;5078090;28;20200;-51
2021/01/25 03:03:22;;;;;;;1.85;0.65;;;18.20;40.20;;;;;;5078065;28;20032;-51
2021/01/25 03:05:47;;;;;;;1.27;0.52;;;18.20;40.10;;;;;;5078060;28;20032;-51
2021/01/25 03:08:13;;;;;;;1.67;0.43;;;18.20;40.10;;;;;;5076727;28;20062;-52
2021/01/25 03:10:39;;;;;;;1.27;0.47;;;18.20;40.10;;;;;;5078206;28;20461;-53
2021/01/25 03:13:05;;;;;;;0.90;0.47;;;18.20;40.10;;;;;;5077232;28;20027;-50
2021/01/25 03:15:35;;;;;;;0.82;0.50;;;18.20;40.10;;;;;;5076870;28;20135;-51
2021/01/25 03:18:02;;;;;;;0.90;0.50;;;18.20;40.10;;;;;;5076909;28;20050;-54
2021/01/25 03:20:28;;;;;;;1.38;0.45;;;18.20;40.10;;;;;;5077304;28;20483;-52
2021/01/25 03:22:53;;;;;;;1.27;0.50;;;18.20;40.10;;;;;;5079238;28;20020;-50
2021/01/25 03:25:19;;;;;;;0.80;0.50;;;18.20;40.20;;;;;;5077474;28;20087;-50
2021/01/25 03:27:44;;;;;;;1.70;0.50;;;18.20;40.10;;;;;;5077372;28;20032;-51
2021/01/25 03:30:12;;;;;;;2.40;0.50;;;18.20;40.20;;;;;;5077757;28;20049;-53
2021/01/25 03:32:38;;;;;;;0.80;0.20;;;18.20;40.30;;;;;;5076470;28;20052;-52
2021/01/25 03:35:05;;;;;;;2.33;0.47;;;18.10;40.30;;;;;;5077880;28;20032;-48
2021/01/25 03:37:31;;;;;;;0.90;0.35;;;18.10;40.10;;;;;;5075228;28;20032;-52
2021/01/25 03:39:58;;;;;;;1.02;0.40;;;18.10;40.10;;;;;;5074555;28;20071;-53
2021/01/25 03:42:24;;;;;;;0.63;0.30;;;18.10;40.20;;;;;;5075959;28;20044;-52
2021/01/25 03:44:50;;;;;;;0.98;0.30;;;18.20;40.20;;;;;;5078533;28;20119;-49
2021/01/25 03:47:16;;;;;;;0.80;0.25;;;18.10;40.10;;;;;;5077314;28;20150;-49
2021/01/25 03:49:41;;;;;;;1.50;0.50;;;18.10;40.10;;;;;;5077237;28;20107;-53
2021/01/25 03:52:07;;;;;;;1.00;0.40;;;18.10;40.00;;;;;;5076421;28;20127;-48
2021/01/25 03:54:32;;;;;;;0.70;0.20;;;18.10;39.90;;;;;;5077655;28;20420;-48
2021/01/25 03:56:58;;;;;;;1.40;0.50;;;18.20;40.00;;;;;;5077215;28;20040;-54
2021/01/25 03:59:24;;;;;;;1.02;0.40;;;18.10;39.90;;;;;;5076431;28;20131;-50
2021/01/25 04:01:50;;;;;;;1.05;0.40;;;18.10;40.00;;;;;;5077601;28;20032;-51
2021/01/25 04:04:15;;;;;;;0.60;0.32;;;18.10;40.10;;;;;;5077899;28;20025;-53
2021/01/25 04:06:41;;;;;;;2.22;0.30;;;18.10;40.00;;;;;;5078112;28;20035;-52
2021/01/25 04:09:06;;;;;;;1.05;0.43;;;18.10;40.00;;;;;;5075101;28;20048;-51
2021/01/25 04:11:33;;;;;;;0.95;0.50;;;18.10;40.00;;;;;;5076477;28;20409;-50
2021/01/25 04:13:58;;;;;;;0.80;0.30;;;18.10;40.00;;;;;;5077736;28;20064;-51
2021/01/25 04:16:24;;;;;;;1.08;0.40;;;18.10;40.00;;;;;;5074717;28;20120;-51
2021/01/25 04:18:49;;;;;;;1.35;0.30;;;18.10;40.00;;;;;;5076038;28;20039;-49
2021/01/25 04:21:15;;;;;;;0.70;0.25;;;18.10;40.10;;;;;;5078330;28;20125;-53
2021/01/25 04:23:41;;;;;;;0.90;0.50;;;18.10;40.10;;;;;;5082837;28;20024;-50
2021/01/25 04:26:06;;;;;;;1.00;0.40;;;18.10;40.00;;;;;;5086351;28;20036;-53
2021/01/25 04:28:32;;;;;;;1.02;0.30;;;18.10;40.00;;;;;;5091696;28;20036;-52
2021/01/25 04:30:58;;;;;;;0.73;0.20;;;18.00;40.50;;;;;;5097616;28;20084;-56
2021/01/25 04:33:23;;;;;;;0.90;0.35;;;18.00;40.00;;;;;;5081237;28;20111;-52
2021/01/25 04:35:49;;;;;;;1.15;0.40;;;18.00;40.00;;;;;;5077163;28;20114;-50
2021/01/25 04:38:14;;;;;;;1.52;0.45;;;18.00;40.00;;;;;;5075677;28;20044;-46
2021/01/25 04:40:40;;;;;;;0.98;0.30;;;18.00;40.00;;;;;;5076886;28;20118;-45
2021/01/25 04:43:07;;;;;;;1.17;0.25;;;18.00;40.00;;;;;;5074989;28;20056;-50
2021/01/25 04:45:33;;;;;;;0.80;0.22;;;18.00;40.00;;;;;;5076232;28;20032;-47
2021/01/25 04:48:00;;;;;;;2.17;0.38;;;18.00;39.90;;;;;;5080529;28;20043;-49
2021/01/25 04:50:25;;;;;;;1.83;0.47;;;18.00;40.00;;;;;;5080360;28;20033;-52
2021/01/25 04:52:52;;;;;;;0.98;0.30;;;18.00;39.90;;;;;;5080900;28;20039;-42
2021/01/25 04:55:18;;;;;;;0.90;0.40;;;18.00;39.80;;;;;;5078451;28;20542;-46
2021/01/25 04:57:44;;;;;;;0.80;0.40;;;18.00;39.90;;;;;;5079219;28;20055;-51
2021/01/25 05:00:13;;;;;;;1.20;0.40;;;18.00;39.80;;;;;;5080256;28;20120;-50
2021/01/25 05:02:39;;;;;;;0.70;0.30;;;18.00;39.90;;;;;;5078938;28;20031;-52
2021/01/25 05:05:07;;;;;;;1.00;0.20;;;18.00;39.90;;;;;;5079489;28;20040;-48
2021/01/25 05:07:33;;;;;;;0.75;0.30;;;18.00;39.90;;;;;;5078818;28;20420;-47
2021/01/25 05:09:59;;;;;;;1.13;0.30;;;18.00;39.80;;;;;;5079554;28;20047;-50
2021/01/25 05:12:25;;;;;;;0.82;0.30;;;18.00;39.80;;;;;;5079891;28;20032;-53
2021/01/25 05:14:51;;;;;;;0.63;0.38;;;18.00;39.90;;;;;;5077657;28;20516;-48
2021/01/25 05:17:17;;;;;;;0.70;0.30;;;18.00;39.80;;;;;;5077557;28;20071;-48
2021/01/25 05:19:44;;;;;;;0.57;0.28;;;18.00;39.80;;;;;;5079865;28;20064;-49
2021/01/25 05:22:14;;;;;;;1.80;0.20;;;18.00;39.80;;;;;;5079724;28;20042;-46
2021/01/25 05:24:45;;;;;;;0.93;0.30;;;18.00;39.80;;;;;;5080439;28;20103;-47
2021/01/25 05:27:10;;;;;;;0.50;0.28;;;18.00;39.80;;;;;;5078972;28;20038;-48
2021/01/25 05:29:36;;;;;;;0.50;0.20;;;18.00;39.80;;;;;;5079905;28;20102;-52
2021/01/25 05:32:08;;;;;;;0.65;0.30;;;18.00;39.80;;;;;;5078925;28;20083;-52
2021/01/25 05:34:34;;;;;;;0.98;0.20;;;18.00;39.80;;;;;;5078991;28;20397;-49
2021/01/25 05:37:00;;;;;;;0.50;0.20;;;18.00;39.80;;;;;;5078409;28;20040;-51
2021/01/25 05:39:30;;;;;;;0.98;0.38;;;18.00;39.90;;;;;;5080614;28;20060;-51
2021/01/25 05:41:58;;;;;;;0.70;0.30;;;18.00;39.80;;;;;;5079273;28;20482;-45
2021/01/25 05:44:26;;;;;;;1.00;0.20;;;18.00;39.80;;;;;;5078301;28;20488;-47
2021/01/25 05:47:03;;;;;;;0.90;0.30;;;18.00;39.70;;;;;;5079620;28;20594;-53
2021/01/25 05:49:28;;;;;;;1.98;0.20;;;18.00;39.70;;;;;;5078393;28;20027;-50
2021/01/25 05:51:54;;;;;;;0.82;0.20;;;18.00;39.70;;;;;;5078078;28;20408;-51
2021/01/25 05:54:24;;;;;;;0.82;0.20;;;18.00;39.80;;;;;;5078954;28;20505;-46
2021/01/25 05:56:50;;;;;;;0.40;0.15;;;18.00;40.20;;;;;;5077277;28;20040;-53
2021/01/25 05:59:16;;;;;;;0.50;0.10;;;18.00;40.20;;;;;;5079496;28;20036;-49
2021/01/25 06:01:43;;;;;;;0.60;0.20;;;18.20;40.10;;;;;;5076611;28;20039;-45
2021/01/25 06:04:15;;;;;;;0.82;0.30;;;18.20;39.90;;;;;;5077875;28;20035;-52
2021/01/25 06:06:41;;;;;;;0.70;0.20;;;18.40;39.70;;;;;;5078307;28;20506;-52
2021/01/25 06:09:51;;;;;;;0.52;0.20;;;18.50;39.60;;;;;;5079833;28;20040;-47
2021/01/25 06:12:23;;;;;;;0.38;0.17;;;18.60;39.40;;;;;;5054624;28;20052;-49
2021/01/25 06:14:54;;;;;;;0.45;0.13;;;18.70;39.30;;;;;;5076112;28;20032;-47
2021/01/25 06:17:21;;;;;;;;;;;18.70;39.20;;;;;;5077964;28;20115;-50
2021/01/25 06:19:48;;;;;;;0.52;0.15;;;18.80;39.20;;;;;;5077921;28;19927;-46
2021/01/25 06:22:15;;;;;;;0.50;0.22;;;18.80;39.10;;;;;;5079378;28;20035;-53
2021/01/25 06:24:42;;;;;;;0.65;0.20;;;18.90;39.00;;;;;;5077406;28;20167;-42
2021/01/25 06:27:14;;;;;;;0.60;0.30;;;18.90;39.00;;;;;;5078715;28;20029;-48
2021/01/25 06:29:40;;;;;;;0.60;0.32;;;18.90;39.00;;;;;;5077680;28;20036;-46
2021/01/25 06:32:09;;;;;;;0.60;0.20;;;19.00;39.00;;;;;;5075997;28;20037;-50
2021/01/25 06:34:37;;;;;;;0.40;0.10;;;19.00;39.00;;;;;;5077321;28;20025;-48
2021/01/25 06:37:02;;;;;;;0.70;0.28;;;19.00;38.90;;;;;;5078734;28;20038;-52
2021/01/25 06:39:30;;;;;;;0.65;0.30;;;19.10;38.90;;;;;;5076733;28;20032;-44
2021/01/25 06:42:04;;;;;;;0.45;0.10;;;19.10;38.80;;;;;;5078681;28;20028;-46
2021/01/25 06:44:31;;;;;;;0.63;0.20;;;19.20;38.70;;;;;;5076235;28;20021;-50
2021/01/25 06:46:58;;;;;;;0.88;0.38;;;19.20;38.60;;;;;;5077626;28;20060;-52
2021/01/25 06:49:26;;;;;;;0.40;0.10;;;19.30;38.60;;;;;;5075885;28;20032;-48
2021/01/25 06:51:53;;;;;;;0.77;0.20;;;19.30;38.60;;;;;;5078579;28;20028;-47
2021/01/25 06:54:23;;;;;;;0.50;0.20;;;19.40;38.60;;;;;;5075628;28;20024;-44
2021/01/25 06:56:58;;;;;;;0.43;0.20;;;19.30;38.60;;;;;;5077065;28;20537;-50
2021/01/25 06:59:26;;;;;;;2.05;0.20;;;19.40;38.60;;;;;;5078042;28;20020;-51
2021/01/25 07:01:53;;;;;;;0.40;0.20;;;19.40;38.60;;;;;;5078367;28;20030;-53
2021/01/25 07:04:22;;;;;;;0.82;0.20;;;19.30;38.60;;;;;;5082057;28;20031;-51
2021/01/25 07:06:53;;;;;;;1.10;0.28;;;19.40;38.70;;;;;;5079314;28;20069;-49
2021/01/25 07:09:32;;;;;;;0.90;0.30;;;19.30;38.80;;;;;;5076860;28;20047;-45
2021/01/25 07:12:04;;;;;;;0.80;0.20;;;19.30;38.80;;;;;;5075564;28;20093;-48
2021/01/25 07:14:32;;;;;;;0.40;0.20;;;19.30;38.90;;;;;;5077195;28;20052;-46
2021/01/25 07:16:58;;;;;;;0.60;0.30;;;19.20;38.90;;;;;;5074809;28;20044;-46
2021/01/25 07:19:25;;;;;;;0.60;0.20;;;19.20;39.00;;;;;;5076993;28;20032;-45
2021/01/25 07:21:52;;;;;;;0.40;0.20;;;19.20;39.10;;;;;;5077538;28;20028;-46
2021/01/25 07:24:27;;;;;;;0.30;0.20;;;19.20;39.10;;;;;;5075562;28;20031;-49
2021/01/25 07:26:54;;;;;;;0.45;0.20;;;19.10;39.10;;;;;;5076685;28;20098;-51
2021/01/25 07:29:21;;;;;;;1.08;0.10;;;19.10;39.70;;;;;;5075906;28;20032;-52
2021/01/25 07:31:47;;;;;;;0.40;0.20;;;19.00;39.80;;;;;;5074136;28;20040;-47
2021/01/25 07:34:13;;;;;;;0.68;0.20;;;19.00;39.40;;;;;;5077268;28;20036;-49
2021/01/25 07:36:39;;;;;;;1.45;0.20;;;18.90;39.50;;;;;;5076014;28;20561;-47
2021/01/25 07:39:10;;;;;;;0.40;0.20;;;18.90;39.80;;;;;;5074507;28;20044;-47
2021/01/25 07:41:36;;;;;;;0.60;0.30;;;18.90;39.80;;;;;;5076449;28;20046;-49
2021/01/25 07:44:05;;;;;;;0.30;0.13;;;18.80;39.80;;;;;;5077777;28;20031;-48
2021/01/25 07:46:31;;;;;;;1.20;0.38;;;18.80;39.80;;;;;;5075012;28;20111;-51
2021/01/25 07:48:57;;;;;;;0.70;0.30;;;18.80;39.60;;;;;;5076540;28;20323;-50
2021/01/25 07:51:27;;;;;;;1.40;0.20;;;18.90;39.30;;;;;;5076373;28;20052;-47
2021/01/25 07:53:54;;;;;;;2.40;0.38;;;19.00;39.00;;;;;;5076076;28;20058;-51
2021/01/25 07:56:25;;;;;;;0.90;0.25;;;19.10;38.80;;;;;;5074867;28;20108;-52
2021/01/25 07:59:09;;;;;;;1.48;0.50;;;19.20;38.50;;;;;;5075414;28;20055;-50
2021/01/25 08:01:56;;;;;;;0.80;0.28;;;19.30;38.60;;;;;;5075953;28;20025;-46
2021/01/25 08:04:33;;;;;;;2.00;0.40;;;19.30;38.40;;;;;;5076547;28;20040;-52
2021/01/25 08:07:00;;;;;;;1.15;0.40;;;19.40;38.40;;;;;;5078912;28;20059;-51
2021/01/25 08:09:27;;;;;;;1.40;0.40;;;19.50;38.40;;;;;;5074546;28;20837;-50
2021/01/25 08:11:53;;;;;;;1.52;0.52;;;19.50;38.30;;;;;;5075061;28;20036;-49
2021/01/25 08:14:37;;;;;;;0.82;0.30;;;19.60;38.20;;;;;;5076003;28;20048;-51
2021/01/25 08:17:07;;;;;;;0.80;0.30;;;19.60;38.10;;;;;;5076755;28;20036;-50
2021/01/25 08:19:43;;;;;;;2.08;0.55;;;19.70;38.10;;;;;;5076399;28;20074;-49
2021/01/25 08:22:20;;;;;;;0.90;0.40;;;19.70;38.00;;;;;;5079340;28;20603;-51
2021/01/25 08:24:56;;;;;;;1.38;0.28;;;19.70;38.00;;;;;;5084169;28;20381;-49
2021/01/25 08:27:22;;;;;;;0.70;0.30;;;19.70;38.00;;;;;;5076669;28;20025;-50
2021/01/25 08:29:58;;;;;;;0.60;0.30;;;19.80;38.10;;;;;;5071136;28;20082;-47
2021/01/25 08:32:27;;;;;;;0.70;0.30;;;19.90;37.90;;;;;;5074943;28;20032;-48
2021/01/25 08:35:05;;;;;;;2.58;0.47;;;19.90;37.80;;;;;;5074786;28;20131;-48
2021/01/25 08:37:33;;;;;;;0.80;0.38;;;19.90;37.90;;;;;;5074743;28;20074;-46
2021/01/25 08:40:10;;;;;;;1.05;0.43;;;19.90;38.10;;;;;;5075832;28;20032;-47
2021/01/25 08:42:35;;;;;;;0.70;0.50;;;20.00;38.20;;;;;;5074056;28;20497;-49
2021/01/25 08:45:09;;;;;;;0.85;0.40;;;20.00;38.30;;;;;;5075765;28;20237;-46
2021/01/25 08:47:35;;;;;;;1.05;0.52;;;20.00;38.20;;;;;;5071714;28;20017;-47
2021/01/25 08:50:02;;;;;;;1.50;0.40;;;20.00;38.40;;;;;;5074132;28;20119;-51
2021/01/25 08:52:40;;;;;;;0.90;0.50;;;20.00;38.30;;;;;;5074821;28;20029;-50
2021/01/25 08:55:11;;;;;;;1.88;0.55;;;19.90;38.30;;;;;;5074839;28;20488;-50
2021/01/25 08:57:40;;;;;;;2.28;0.73;;;19.90;38.80;;;;;;5073568;28;20499;-49
2021/01/25 09:00:12;;;;;;;1.20;0.70;;;19.90;38.80;;;;;;5076819;28;20020;-50
2021/01/25 09:02:37;;;;;;;2.40;0.90;;;19.90;38.80;;;;;;5077079;28;20028;-48
2021/01/25 09:05:03;;;;;;;1.88;0.80;;;19.90;39.00;;;;;;5076793;28;20025;-50
2021/01/25 09:07:29;;;;;;;1.08;0.70;;;20.00;38.90;;;;;;5075841;28;20028;-51
2021/01/25 09:09:54;;;;;;;1.33;0.82;;;20.10;38.90;;;;;;5076399;28;20032;-47
2021/01/25 09:12:20;;;;;;;1.63;1.13;;;20.10;38.90;;;;;;5078230;28;20338;-45
2021/01/25 09:14:46;;;;;;;1.23;0.82;;;20.20;38.80;;;;;;5078639;28;20052;-47
2021/01/25 09:17:13;;;;;;;1.92;0.82;;;20.30;38.70;;;;;;5074083;28;21557;-49
2021/01/25 09:19:39;;;;;;;2.22;1.10;;;20.40;38.70;;;;;;5075156;28;20028;-52
2021/01/25 09:22:06;;;;;;;1.85;1.02;;;20.40;38.50;;;;;;5072002;28;20020;-51
2021/01/25 09:24:32;;;;;;;1.65;1.02;;;20.50;38.50;;;;;;5075415;28;20032;-51
2021/01/25 09:26:58;;;;;;;2.60;1.13;;;20.40;38.60;;;;;;5074027;28;20378;-51
2021/01/25 09:29:23;;;;;;;3.22;1.23;;;20.40;38.70;;;;;;5074831;28;20036;-51
2021/01/25 09:31:49;;;;;;;4.13;1.08;;;20.40;38.70;;;;;;5076874;28;20501;-49
2021/01/25 09:34:14;;;;;;;5.85;1.65;;;20.40;38.60;;;;;;5075812;28;20036;-49
2021/01/25 09:36:40;;;;;;;2.88;1.27;;;20.50;38.70;;;;;;5076919;28;20038;-48
2021/01/25 09:39:06;;;;;;;4.45;1.25;;;20.60;38.70;;;;;;5076372;28;20051;-49
2021/01/25 09:41:33;;;;;;;2.20;1.35;;;20.60;38.70;;;;;;5076774;28;20031;-49
2021/01/25 09:43:59;;;;;;;5.07;1.63;;;20.70;38.70;;;;;;5078682;28;20032;-45
2021/01/25 09:46:24;;;;;;;1.58;1.48;;;20.70;38.60;;;;;;5078916;28;20028;-47
2021/01/25 09:48:50;;;;;;;2.58;1.40;;;20.80;38.60;;;;;;5076870;28;20043;-49
2021/01/25 09:51:15;;;;;;;3.08;1.30;;;20.90;38.60;;;;;;5101768;22;20112;-48
2021/01/25 09:53:41;;;;;;;3.83;1.15;;;20.90;38.60;;;;;;5099242;28;20645;-48
2021/01/25 09:56:07;;;;;;;2.55;1.15;;;20.90;38.60;;;;;;5099172;28;20051;-46
2021/01/25 09:58:34;;;;;;;5.40;1.10;;;21.00;38.70;;;;;;5100976;28;20070;-47
2021/01/25 10:01:00;;;;;;;2.28;1.00;;;21.00;38.80;;;;;;5103964;28;20024;-47
2021/01/25 10:03:26;;;;;;;1.80;0.93;;;21.10;38.70;;;;;;5102750;28;20039;-51
2021/01/25 10:05:52;;;;;;;2.30;1.27;;;21.20;38.70;;;;;;5099819;28;20895;-52
2021/01/25 10:08:17;;;;;;;2.80;1.20;;;21.10;38.60;;;;;;5097410;28;20110;-48
2021/01/25 10:10:43;;;;;;;1.67;0.98;;;21.10;38.70;;;;;;5100255;28;20073;-48
2021/01/25 10:13:08;;;;;;;2.00;0.98;;;21.10;38.60;;;;;;5098680;28;20120;-47
2021/01/25 10:15:34;;;;;;;2.45;1.27;;;21.20;38.70;;;;;;5098479;28;20551;-50
2021/01/25 10:18:01;;;;;;;1.95;0.98;;;21.20;38.80;;;;;;5097335;28;20028;-50
2021/01/25 10:20:28;;;;;;;5.75;0.57;;;21.20;38.80;;;;;;5100246;28;20035;-50
2021/01/25 10:22:53;;;;;;;1.67;0.90;;;21.20;38.70;;;;;;5099782;28;20497;-51
2021/01/25 10:25:19;;;;;;;2.22;0.98;;;21.30;38.70;;;;;;5098747;28;20054;-51
2021/01/25 10:27:45;;;;;;;1.65;1.10;;;21.30;38.70;;;;;;5099624;28;20016;-48
2021/01/25 10:30:12;;;;;;;1.65;0.60;;;21.30;38.70;;;;;;5098109;28;20585;-48
2021/01/25 10:32:38;;;;;;;1.50;0.98;;;21.30;38.80;;;;;;5097753;28;20032;-44
2021/01/25 10:35:06;;;;;;;1.42;0.70;;;21.20;38.90;;;;;;5098535;28;20112;-47
2021/01/25 10:37:32;;;;;;;1.63;0.68;;;21.10;38.90;;;;;;5097006;28;20465;-47
2021/01/25 10:39:58;;;;;;;2.83;0.80;;;21.10;39.00;;;;;;5097344;28;20097;-47
2021/01/25 10:42:23;;;;;;;2.95;0.55;;;21.10;39.00;;;;;;5095036;28;20054;-47
2021/01/25 10:44:49;;;;;;;0.80;0.52;;;21.10;39.10;;;;;;5095091;28;20076;-47
2021/01/25 10:47:18;;;;;;;1.65;0.80;;;21.10;39.10;;;;;;5098816;28;20044;-50
2021/01/25 10:49:47;;;;;;;1.63;0.68;;;21.10;39.20;;;;;;5095260;28;20035;-46
2021/01/25 10:52:14;;;;;;;1.98;0.93;;;21.10;39.20;;;;;;5097434;28;20044;-48
2021/01/25 10:54:40;;;;;;;1.52;0.80;;;21.00;39.20;;;;;;5113957;27;20455;-46
2021/01/25 10:57:07;;;;;;;1.40;0.60;;;21.00;39.20;;;;;;5097532;28;20028;-46
2021/01/25 10:59:36;;;;;;;3.30;0.80;;;21.00;39.30;;;;;;5098073;28;20659;-49
2021/01/25 11:02:04;;;;;;;1.55;0.55;;;21.00;39.30;;;;;;5099445;28;20035;-48
2021/01/25 11:04:30;;;;;;;2.33;0.60;;;20.90;39.30;;;;;;5095169;28;20022;-45
2021/01/25 11:06:55;;;;;;;2.30;0.73;;;20.90;39.30;;;;;;5096802;28;20031;-46
2021/01/25 11:09:21;;;;;;;1.48;0.50;;;20.90;39.30;;;;;;5096681;28;20031;-49
2021/01/25 11:11:47;;;;;;;1.75;0.73;;;20.90;39.30;;;;;;5096359;28;20150;-47
2021/01/25 11:14:12;;;;;;;2.20;0.70;;;20.90;39.20;;;;;;5098768;28;20028;-50
2021/01/25 11:16:38;;;;;;;3.38;0.65;;;20.90;39.40;;;;;;5096639;28;20024;-48
2021/01/25 11:19:04;;;;;;;2.45;0.70;;;20.90;39.50;;;;;;5098798;28;20036;-46
2021/01/25 11:21:29;;;;;;;0.88;0.40;;;20.80;39.50;;;;;;5096672;28;20031;-47
2021/01/25 11:23:55;;;;;;;1.30;0.70;;;20.80;39.50;;;;;;5095798;28;20024;-47
2021/01/25 11:26:21;;;;;;;0.98;0.40;;;20.90;39.60;;;;;;5096932;28;20026;-49
2021/01/25 11:28:47;;;;;;;0.80;0.35;;;20.90;39.60;;;;;;5094990;28;20034;-48
2021/01/25 11:31:13;;;;;;;1.42;0.50;;;21.00;39.40;;;;;;5096110;28;20038;-50
2021/01/25 11:33:39;;;;;;;1.05;0.55;;;21.10;39.20;;;;;;5099273;28;20447;-51
2021/01/25 11:36:06;;;;;;;0.95;0.43;;;21.20;39.10;;;;;;5096429;28;20107;-48
2021/01/25 11:38:32;;;;;;;0.77;0.50;;;21.30;39.10;;;;;;5113627;27;20449;-44
2021/01/25 11:40:58;;;;;;;0.80;0.40;;;21.30;39.00;;;;;;5095568;28;20034;-50
2021/01/25 11:43:24;;;;;;;1.33;0.50;;;21.40;39.00;;;;;;5097765;28;20012;-49
2021/01/25 11:45:50;;;;;;;1.23;0.73;;;21.50;39.10;;;;;;5097325;28;20480;-48
2021/01/25 11:48:17;;;;;;;1.58;0.65;;;21.60;38.80;;;;;;5098486;28;20058;-47
2021/01/25 11:50:45;;;;;;;1.80;0.50;;;21.70;38.70;;;;;;5095547;28;20028;-48
2021/01/25 11:53:11;;;;;;;0.93;0.60;;;21.70;38.60;;;;;;5098637;28;20514;-47
2021/01/25 11:55:36;;;;;;;0.98;0.47;;;21.70;38.60;;;;;;5094886;28;20023;-46
2021/01/25 11:58:02;;;;;;;1.05;0.45;;;21.80;38.60;;;;;;5097175;28;20031;-49
2021/01/25 12:00:28;;;;;;;0.95;0.55;;;21.70;38.60;;;;;;5096363;28;20024;-44
2021/01/25 12:02:54;;;;;;;1.45;0.60;;;21.70;38.80;;;;;;5097428;28;20542;-49
2021/01/25 12:05:20;;;;;;;2.20;0.63;;;21.70;38.90;;;;;;5093719;28;20028;-47
2021/01/25 12:07:45;;;;;;;1.15;0.52;;;21.80;38.80;;;;;;5096636;28;20028;-50
2021/01/25 12:10:12;;;;;;;2.10;0.52;;;21.80;38.70;;;;;;5112952;27;20093;-51
2021/01/25 12:12:37;;;;;;;1.00;0.47;;;21.80;38.90;;;;;;5097874;28;20028;-50
2021/01/25 12:15:04;;;;;;;1.20;0.40;;;21.80;38.80;;;;;;5095967;28;20027;-49
2021/01/25 12:17:29;;;;;;;0.70;0.40;;;21.90;38.80;;;;;;5097718;28;20046;-49
2021/01/25 12:19:55;;;;;;;1.98;0.75;;;21.90;38.90;;;;;;5097617;28;20661;-47
2021/01/25 12:22:20;;;;;;;1.30;0.70;;;21.80;38.90;;;;;;5095322;28;20020;-45
2021/01/25 12:24:46;;;;;;;1.10;0.50;;;21.80;39.00;;;;;;5096793;28;20627;-46
2021/01/25 12:27:11;;;;;;;2.75;0.70;;;21.70;39.10;;;;;;5097243;28;20032;-47
2021/01/25 12:29:37;;;;;;;2.08;0.50;;;21.70;39.20;;;;;;5097719;28;20442;-45
2021/01/25 12:32:03;;;;;;;1.45;0.70;;;21.70;39.30;;;;;;5093725;28;20055;-49
2021/01/25 12:34:28;;;;;;;0.98;0.75;;;21.60;39.50;;;;;;5096129;28;20024;-49
2021/01/25 12:36:54;;;;;;;1.23;0.70;;;21.60;39.30;;;;;;5092725;28;20117;-47
2021/01/25 12:39:20;;;;;;;1.60;1.00;;;21.60;39.30;;;;;;5096723;28;20437;-46
2021/01/25 12:41:46;;;;;;;1.10;0.70;;;21.70;39.40;;;;;;5094661;28;20023;-50
2021/01/25 12:44:12;;;;;;;1.73;0.93;;;21.60;39.30;;;;;;5098178;28;20038;-46
2021/01/25 12:46:37;;;;;;;3.05;1.13;;;21.60;39.40;;;;;;5097373;28;20031;-46
2021/01/25 12:49:04;;;;;;;3.13;1.20;;;21.70;39.40;;;;;;5094544;28;20039;-49
2021/01/25 12:51:31;;;;;;;2.35;1.23;;;21.70;39.30;;;;;;5094353;28;20082;-44